sensor_id;sensor_type;location;lat;lon;timestamp;pressure;altitude;pressure_sealevel;temperature;humidity
21828;BME280;11076;47.942;11.804;2023-05-11T00:02:30;94162.44;;;7.88;100.00
21828;BME280;11076;47.942;11.804;2023-05-11T00:07:32;94148.50;;;7.92;100.00
21828;BME280;11076;47.942;11.804;2023-05-11T00:12:35;94150.13;;;7.87;100.00
21828;BME280;11076;47.942;11.804;2023-05-11T00:17:37;94145.81;;;7.86;100.00
21828;BME280;11076;47.942;11.804;2023-05-11T00:22:40;94141.31;;;7.80;100.00
21828;BME280;11076;47.942;11.804;2023-05-11T00:27:43;94143.59;;;7.83;100.00
21828;BME280;11076;47.942;11.804;2023-05-11T00:32:48;94132.13;;;7.75;100.00
21828;BME280;11076;47.942;11.804;2023-05-11T00:37:52;94134.41;;;7.72;100.00
21828;BME280;11076;47.942;11.804;2023-05-11T00:42:54;94133.56;;;7.71;100.00
21828;BME280;11076;47.942;11.804;2023-05-11T00:47:57;94131.75;;;7.72;100.00
21828;BME280;11076;47.942;11.804;2023-05-11T00:52:59;94124.97;;;7.69;100.00
21828;BME280;11076;47.942;11.804;2023-05-11T00:58:02;94127.03;;;7.67;100.00
21828;BME280;11076;47.942;11.804;2023-05-11T01:03:06;94126.63;;;7.64;100.00
21828;BME280;11076;47.942;11.804;2023-05-11T01:08:17;94131.75;;;7.65;100.00
21828;BME280;11076;47.942;11.804;2023-05-11T01:13:32;94122.13;;;7.57;100.00
21828;BME280;11076;47.942;11.804;2023-05-11T01:18:42;94125.00;;;7.56;100.00
21828;BME280;11076;47.942;11.804;2023-05-11T01:24:15;94125.41;;;7.53;100.00
21828;BME280;11076;47.942;11.804;2023-05-11T01:29:41;94114.16;;;7.51;100.00
21828;BME280;11076;47.942;11.804;2023-05-11T01:34:46;94124.19;;;7.55;100.00
21828;BME280;11076;47.942;11.804;2023-05-11T01:39:52;94118.25;;;7.53;100.00
21828;BME280;11076;47.942;11.804;2023-05-11T01:44:56;94117.66;;;7.45;100.00
21828;BME280;11076;47.942;11.804;2023-05-11T01:50:02;94115.00;;;7.45;100.00
21828;BME280;11076;47.942;11.804;2023-05-11T01:55:06;94110.28;;;7.47;100.00
21828;BME280;11076;47.942;11.804;2023-05-11T02:00:09;94117.22;;;7.48;100.00
21828;BME280;11076;47.942;11.804;2023-05-11T02:05:21;94114.38;;;7.43;100.00
21828;BME280;11076;47.942;11.804;2023-05-11T02:10:25;94114.38;;;7.36;100.00
21828;BME280;11076;47.942;11.804;2023-05-11T02:15:29;94109.47;;;7.40;100.00
21828;BME280;11076;47.942;11.804;2023-05-11T02:20:32;94111.09;;;7.34;100.00
21828;BME280;11076;47.942;11.804;2023-05-11T02:25:40;94107.00;;;7.31;100.00
21828;BME280;11076;47.942;11.804;2023-05-11T02:30:45;94113.56;;;7.29;100.00
21828;BME280;11076;47.942;11.804;2023-05-11T02:35:50;94110.28;;;7.33;100.00
21828;BME280;11076;47.942;11.804;2023-05-11T02:40:57;94102.94;;;7.29;100.00
21828;BME280;11076;47.942;11.804;2023-05-11T02:46:06;94109.50;;;7.26;100.00
21828;BME280;11076;47.942;11.804;2023-05-11T02:51:13;94100.47;;;7.21;100.00
21828;BME280;11076;47.942;11.804;2023-05-11T02:56:22;94098.44;;;7.23;100.00
21828;BME280;11076;47.942;11.804;2023-05-11T03:01:29;94093.72;;;7.18;100.00
21828;BME280;11076;47.942;11.804;2023-05-11T03:06:32;94089.22;;;7.19;100.00
21828;BME280;11076;47.942;11.804;2023-05-11T03:11:36;94089.00;;;7.20;100.00
21828;BME280;11076;47.942;11.804;2023-05-11T03:16:39;94092.31;;;7.22;100.00
21828;BME280;11076;47.942;11.804;2023-05-11T03:21:43;94086.56;;;7.12;100.00
21828;BME280;11076;47.942;11.804;2023-05-11T03:26:46;94080.84;;;7.02;100.00
21828;BME280;11076;47.942;11.804;2023-05-11T03:31:49;94085.34;;;7.08;100.00
21828;BME280;11076;47.942;11.804;2023-05-11T03:36:53;94077.38;;;7.01;100.00
21828;BME280;11076;47.942;11.804;2023-05-11T03:41:58;94070.41;;;6.93;100.00
21828;BME280;11076;47.942;11.804;2023-05-11T03:47:02;94074.72;;;6.94;100.00
21828;BME280;11076;47.942;11.804;2023-05-11T03:52:06;94078.00;;;6.96;100.00
21828;BME280;11076;47.942;11.804;2023-05-11T03:57:09;94076.94;;;6.97;100.00
21828;BME280;11076;47.942;11.804;2023-05-11T04:02:13;94057.53;;;6.97;100.00
21828;BME280;11076;47.942;11.804;2023-05-11T04:07:15;94068.34;;;7.02;100.00
21828;BME280;11076;47.942;11.804;2023-05-11T04:12:17;94067.75;;;7.07;100.00
21828;BME280;11076;47.942;11.804;2023-05-11T04:17:20;94061.22;;;7.03;100.00
21828;BME280;11076;47.942;11.804;2023-05-11T04:22:22;94062.66;;;6.99;100.00
21828;BME280;11076;47.942;11.804;2023-05-11T04:27:25;94077.16;;;7.03;100.00
21828;BME280;11076;47.942;11.804;2023-05-11T04:32:27;94075.13;;;7.05;100.00
21828;BME280;11076;47.942;11.804;2023-05-11T04:37:31;94080.66;;;7.16;100.00
21828;BME280;11076;47.942;11.804;2023-05-11T04:42:35;94077.53;;;7.40;100.00
21828;BME280;11076;47.942;11.804;2023-05-11T04:47:41;94076.53;;;7.41;100.00
21828;BME280;11076;47.942;11.804;2023-05-11T04:52:44;94072.63;;;7.50;100.00
21828;BME280;11076;47.942;11.804;2023-05-11T04:57:47;94084.91;;;7.37;100.00
21828;BME280;11076;47.942;11.804;2023-05-11T05:02:50;94081.03;;;7.33;100.00
21828;BME280;11076;47.942;11.804;2023-05-11T05:07:53;94087.19;;;7.27;100.00
21828;BME280;11076;47.942;11.804;2023-05-11T05:12:56;94083.69;;;7.20;100.00
21828;BME280;11076;47.942;11.804;2023-05-11T05:18:00;94092.31;;;7.22;100.00
21828;BME280;11076;47.942;11.804;2023-05-11T05:23:03;94084.94;;;7.24;100.00
21828;BME280;11076;47.942;11.804;2023-05-11T05:28:05;94091.06;;;7.25;100.00
21828;BME280;11076;47.942;11.804;2023-05-11T05:33:08;94092.50;;;7.14;100.00
21828;BME280;11076;47.942;11.804;2023-05-11T05:38:10;94102.09;;;7.22;100.00
21828;BME280;11076;47.942;11.804;2023-05-11T05:43:13;94107.00;;;7.31;100.00
21828;BME280;11076;47.942;11.804;2023-05-11T05:48:16;94110.28;;;7.27;100.00
21828;BME280;11076;47.942;11.804;2023-05-11T05:53:19;94105.59;;;7.29;100.00
21828;BME280;11076;47.942;11.804;2023-05-11T05:58:21;94105.78;;;7.27;100.00
21828;BME280;11076;47.942;11.804;2023-05-11T06:03:24;94105.56;;;7.35;100.00
21828;BME280;11076;47.942;11.804;2023-05-11T06:08:27;94104.97;;;7.33;100.00
21828;BME280;11076;47.942;11.804;2023-05-11T06:13:29;94115.81;;;7.32;100.00
21828;BME280;11076;47.942;11.804;2023-05-11T06:18:34;94110.28;;;7.40;100.00
21828;BME280;11076;47.942;11.804;2023-05-11T06:23:39;94110.09;;;7.48;100.00
21828;BME280;11076;47.942;11.804;2023-05-11T06:28:42;94110.91;;;7.49;100.00
21828;BME280;11076;47.942;11.804;2023-05-11T06:33:48;94118.22;;;7.67;100.00
21828;BME280;11076;47.942;11.804;2023-05-11T06:39:00;94123.34;;;7.62;100.00
21828;BME280;11076;47.942;11.804;2023-05-11T06:44:02;94119.88;;;7.61;100.00
21828;BME280;11076;47.942;11.804;2023-05-11T06:49:11;94120.50;;;7.56;100.00
21828;BME280;11076;47.942;11.804;2023-05-11T06:54:13;94121.31;;;7.70;100.00
21828;BME280;11076;47.942;11.804;2023-05-11T06:59:16;94117.19;;;7.68;100.00
21828;BME280;11076;47.942;11.804;2023-05-11T07:04:18;94116.78;;;7.77;100.00
21828;BME280;11076;47.942;11.804;2023-05-11T07:09:20;94111.63;;;7.96;100.00
21828;BME280;11076;47.942;11.804;2023-05-11T07:14:23;94115.75;;;8.37;100.00
21828;BME280;11076;47.942;11.804;2023-05-11T07:19:25;94112.41;;;8.62;100.00
21828;BME280;11076;47.942;11.804;2023-05-11T07:24:28;94123.69;;;8.64;100.00
21828;BME280;11076;47.942;11.804;2023-05-11T07:29:30;94114.34;;;8.41;100.00
21828;BME280;11076;47.942;11.804;2023-05-11T07:34:33;94116.09;;;8.61;100.00
21828;BME280;11076;47.942;11.804;2023-05-11T07:39:35;94118.50;;;8.69;100.00
21828;BME280;11076;47.942;11.804;2023-05-11T07:44:37;94110.53;;;9.01;100.00
21828;BME280;11076;47.942;11.804;2023-05-11T07:49:40;94116.19;;;9.11;100.00
21828;BME280;11076;47.942;11.804;2023-05-11T07:54:44;94118.69;;;9.38;100.00
21828;BME280;11076;47.942;11.804;2023-05-11T07:59:46;94113.41;;;9.74;100.00
21828;BME280;11076;47.942;11.804;2023-05-11T08:04:49;94121.00;;;10.14;100.00
21828;BME280;11076;47.942;11.804;2023-05-11T08:09:51;94117.00;;;10.42;100.00
21828;BME280;11076;47.942;11.804;2023-05-11T08:14:53;94114.19;;;10.55;100.00
21828;BME280;11076;47.942;11.804;2023-05-11T08:19:56;94117.16;;;10.47;100.00
21828;BME280;11076;47.942;11.804;2023-05-11T08:24:59;94112.16;;;10.69;100.00
21828;BME280;11076;47.942;11.804;2023-05-11T08:30:02;94118.50;;;10.57;100.00
21828;BME280;11076;47.942;11.804;2023-05-11T08:35:05;94113.44;;;10.67;100.00
21828;BME280;11076;47.942;11.804;2023-05-11T08:40:12;94110.06;;;11.02;99.18
21828;BME280;11076;47.942;11.804;2023-05-11T08:45:16;94107.50;;;11.61;100.00
21828;BME280;11076;47.942;11.804;2023-05-11T08:50:19;94106.97;;;11.94;99.18
21828;BME280;11076;47.942;11.804;2023-05-11T08:55:24;94104.09;;;12.36;99.02
21828;BME280;11076;47.942;11.804;2023-05-11T09:00:28;94099.19;;;12.33;95.44
21828;BME280;11076;47.942;11.804;2023-05-11T09:05:31;94109.66;;;12.46;92.63
21828;BME280;11076;47.942;11.804;2023-05-11T09:10:35;94097.53;;;12.56;88.17
21828;BME280;11076;47.942;11.804;2023-05-11T09:15:37;94096.22;;;12.58;88.85
21828;BME280;11076;47.942;11.804;2023-05-11T09:20:42;94090.25;;;12.97;90.75
21828;BME280;11076;47.942;11.804;2023-05-11T09:25:47;94090.72;;;12.65;88.51
21828;BME280;11076;47.942;11.804;2023-05-11T09:30:50;94086.13;;;12.48;88.37
21828;BME280;11076;47.942;11.804;2023-05-11T09:35:52;94086.88;;;12.20;88.41
21828;BME280;11076;47.942;11.804;2023-05-11T09:40:55;94094.56;;;11.81;91.38
21828;BME280;11076;47.942;11.804;2023-05-11T09:45:59;94095.50;;;11.51;90.99
21828;BME280;11076;47.942;11.804;2023-05-11T09:51:08;94094.75;;;11.09;93.33
21828;BME280;11076;47.942;11.804;2023-05-11T09:56:11;94097.44;;;10.79;94.48
21828;BME280;11076;47.942;11.804;2023-05-11T10:01:16;94093.63;;;10.86;94.92
21828;BME280;11076;47.942;11.804;2023-05-11T10:06:19;94098.63;;;10.64;94.79
21828;BME280;11076;47.942;11.804;2023-05-11T10:11:22;94091.66;;;10.93;95.89
21828;BME280;11076;47.942;11.804;2023-05-11T10:16:25;94093.78;;;11.03;95.98
21828;BME280;11076;47.942;11.804;2023-05-11T10:21:28;94102.69;;;10.85;96.10
21828;BME280;11076;47.942;11.804;2023-05-11T10:26:31;94090.97;;;10.86;96.26
21828;BME280;11076;47.942;11.804;2023-05-11T10:31:35;94097.47;;;10.90;95.55
21828;BME280;11076;47.942;11.804;2023-05-11T10:36:38;94095.41;;;10.92;95.93
21828;BME280;11076;47.942;11.804;2023-05-11T10:58:00;94069.31;;;12.01;93.95
21828;BME280;11076;47.942;11.804;2023-05-11T11:03:08;94066.53;;;11.96;91.95
21828;BME280;11076;47.942;11.804;2023-05-11T11:08:11;94068.72;;;12.10;92.29
21828;BME280;11076;47.942;11.804;2023-05-11T11:13:15;94073.09;;;12.40;93.76
21828;BME280;11076;47.942;11.804;2023-05-11T11:18:23;94070.09;;;12.25;92.26
21828;BME280;11076;47.942;11.804;2023-05-11T11:23:45;94070.34;;;12.11;93.25
21828;BME280;11076;47.942;11.804;2023-05-11T11:33:56;94072.91;;;11.83;92.78
21828;BME280;11076;47.942;11.804;2023-05-11T11:39:01;94065.00;;;11.88;93.95
21828;BME280;11076;47.942;11.804;2023-05-11T11:44:19;94073.47;;;11.26;93.50
21828;BME280;11076;47.942;11.804;2023-05-11T11:49:26;94073.22;;;11.15;95.70
21828;BME280;11076;47.942;11.804;2023-05-11T11:54:39;94073.25;;;11.27;96.33
21828;BME280;11076;47.942;11.804;2023-05-11T11:59:45;94062.38;;;10.99;97.40
21828;BME280;11076;47.942;11.804;2023-05-11T12:04:55;94065.03;;;10.87;98.36
21828;BME280;11076;47.942;11.804;2023-05-11T12:10:02;94066.84;;;10.74;98.75
21828;BME280;11076;47.942;11.804;2023-05-11T12:15:06;94067.78;;;10.80;99.24
21828;BME280;11076;47.942;11.804;2023-05-11T12:20:14;94061.81;;;10.97;100.00
21828;BME280;11076;47.942;11.804;2023-05-11T12:25:18;94060.66;;;11.04;99.63
21828;BME280;11076;47.942;11.804;2023-05-11T12:30:25;94060.75;;;10.98;98.27
21828;BME280;11076;47.942;11.804;2023-05-11T12:35:29;94066.66;;;10.58;98.98
21828;BME280;11076;47.942;11.804;2023-05-11T12:40:32;94064.13;;;10.63;100.00
21828;BME280;11076;47.942;11.804;2023-05-11T12:45:36;94056.59;;;10.71;99.66
21828;BME280;11076;47.942;11.804;2023-05-11T12:50:42;94062.16;;;10.70;99.51
21828;BME280;11076;47.942;11.804;2023-05-11T12:55:58;94055.09;;;10.75;99.48
21828;BME280;11076;47.942;11.804;2023-05-11T13:01:01;94056.06;;;10.81;99.21
21828;BME280;11076;47.942;11.804;2023-05-11T13:06:10;94057.66;;;10.70;100.00
21828;BME280;11076;47.942;11.804;2023-05-11T13:11:21;94054.06;;;10.77;100.00
21828;BME280;11076;47.942;11.804;2023-05-11T13:16:32;94049.53;;;10.77;100.00
21828;BME280;11076;47.942;11.804;2023-05-11T13:21:35;94040.44;;;10.78;100.00
21828;BME280;11076;47.942;11.804;2023-05-11T13:26:37;94046.50;;;10.73;100.00
21828;BME280;11076;47.942;11.804;2023-05-11T13:31:47;94045.59;;;10.80;100.00
21828;BME280;11076;47.942;11.804;2023-05-11T13:36:50;94028.41;;;10.87;100.00
21828;BME280;11076;47.942;11.804;2023-05-11T13:41:52;94035.31;;;10.65;100.00
21828;BME280;11076;47.942;11.804;2023-05-11T13:46:56;94038.84;;;10.47;100.00
21828;BME280;11076;47.942;11.804;2023-05-11T13:51:59;94043.34;;;10.65;100.00
21828;BME280;11076;47.942;11.804;2023-05-11T13:57:01;94033.69;;;10.64;100.00
21828;BME280;11076;47.942;11.804;2023-05-11T14:02:04;94033.78;;;10.57;100.00
21828;BME280;11076;47.942;11.804;2023-05-11T14:07:07;94034.31;;;10.47;100.00
21828;BME280;11076;47.942;11.804;2023-05-11T14:12:09;94016.28;;;10.73;100.00
21828;BME280;11076;47.942;11.804;2023-05-11T14:17:12;94026.59;;;10.69;100.00
21828;BME280;11076;47.942;11.804;2023-05-11T14:22:17;94025.41;;;10.53;100.00
21828;BME280;11076;47.942;11.804;2023-05-11T14:27:19;94021.94;;;10.65;100.00
21828;BME280;11076;47.942;11.804;2023-05-11T14:32:22;94019.78;;;10.43;100.00
21828;BME280;11076;47.942;11.804;2023-05-11T14:37:24;94023.81;;;10.34;100.00
21828;BME280;11076;47.942;11.804;2023-05-11T14:42:27;94018.03;;;10.37;100.00
21828;BME280;11076;47.942;11.804;2023-05-11T14:47:30;94017.19;;;10.67;100.00
21828;BME280;11076;47.942;11.804;2023-05-11T14:52:33;94019.66;;;10.68;100.00
21828;BME280;11076;47.942;11.804;2023-05-11T14:57:35;94012.22;;;10.70;100.00
21828;BME280;11076;47.942;11.804;2023-05-11T15:02:38;94013.75;;;10.48;100.00
21828;BME280;11076;47.942;11.804;2023-05-11T15:07:40;94017.13;;;10.25;100.00
21828;BME280;11076;47.942;11.804;2023-05-11T15:12:43;94019.44;;;10.21;100.00
21828;BME280;11076;47.942;11.804;2023-05-11T15:17:45;94026.03;;;10.19;100.00
21828;BME280;11076;47.942;11.804;2023-05-11T15:22:47;94031.22;;;10.32;100.00
21828;BME280;11076;47.942;11.804;2023-05-11T15:27:50;94035.09;;;10.18;100.00
21828;BME280;11076;47.942;11.804;2023-05-11T15:32:52;94035.38;;;10.28;100.00
21828;BME280;11076;47.942;11.804;2023-05-11T15:37:55;94035.53;;;10.14;100.00
21828;BME280;11076;47.942;11.804;2023-05-11T15:42:59;94038.13;;;10.21;100.00
21828;BME280;11076;47.942;11.804;2023-05-11T15:48:01;94038.72;;;10.23;100.00
21828;BME280;11076;47.942;11.804;2023-05-11T15:53:04;94032.78;;;10.40;100.00
21828;BME280;11076;47.942;11.804;2023-05-11T15:58:06;94037.44;;;10.44;100.00
21828;BME280;11076;47.942;11.804;2023-05-11T16:03:09;94034.66;;;10.39;100.00
21828;BME280;11076;47.942;11.804;2023-05-11T16:08:12;94036.56;;;10.32;100.00
21828;BME280;11076;47.942;11.804;2023-05-11T16:13:14;94031.59;;;10.35;100.00
21828;BME280;11076;47.942;11.804;2023-05-11T16:18:16;94037.81;;;10.29;100.00
21828;BME280;11076;47.942;11.804;2023-05-11T16:23:20;94025.25;;;10.48;100.00
21828;BME280;11076;47.942;11.804;2023-05-11T16:28:23;94028.97;;;10.47;100.00
21828;BME280;11076;47.942;11.804;2023-05-11T16:33:25;94025.25;;;10.48;100.00
21828;BME280;11076;47.942;11.804;2023-05-11T16:38:28;94021.09;;;10.52;100.00
21828;BME280;11076;47.942;11.804;2023-05-11T16:43:30;94016.69;;;10.58;100.00
21828;BME280;11076;47.942;11.804;2023-05-11T16:48:34;94008.66;;;10.58;100.00
21828;BME280;11076;47.942;11.804;2023-05-11T16:53:36;94006.84;;;10.40;100.00
21828;BME280;11076;47.942;11.804;2023-05-11T16:58:39;94009.31;;;10.42;100.00
21828;BME280;11076;47.942;11.804;2023-05-11T17:03:41;94008.63;;;10.46;100.00
21828;BME280;11076;47.942;11.804;2023-05-11T17:08:44;94004.88;;;10.35;100.00
21828;BME280;11076;47.942;11.804;2023-05-11T17:13:47;94003.47;;;10.14;100.00
21828;BME280;11076;47.942;11.804;2023-05-11T17:18:49;94011.84;;;10.18;100.00
21828;BME280;11076;47.942;11.804;2023-05-11T17:23:52;94011.63;;;10.20;100.00
21828;BME280;11076;47.942;11.804;2023-05-11T17:28:54;94009.41;;;10.16;100.00
21828;BME280;11076;47.942;11.804;2023-05-11T17:33:57;94011.63;;;10.20;100.00
21828;BME280;11076;47.942;11.804;2023-05-11T17:38:59;94008.47;;;10.11;100.00
21828;BME280;11076;47.942;11.804;2023-05-11T17:44:02;94020.88;;;10.05;100.00
21828;BME280;11076;47.942;11.804;2023-05-11T17:49:06;94013.75;;;9.99;100.00
21828;BME280;11076;47.942;11.804;2023-05-11T17:54:09;94010.50;;;9.97;100.00
21828;BME280;11076;47.942;11.804;2023-05-11T17:59:12;94008.41;;;9.99;100.00
21828;BME280;11076;47.942;11.804;2023-05-11T18:04:15;94006.97;;;9.96;100.00
21828;BME280;11076;47.942;11.804;2023-05-11T18:09:18;94015.38;;;9.82;100.00
21828;BME280;11076;47.942;11.804;2023-05-11T18:14:21;94009.28;;;9.74;100.00
21828;BME280;11076;47.942;11.804;2023-05-11T18:19:24;94009.47;;;9.61;100.00
21828;BME280;11076;47.942;11.804;2023-05-11T18:24:27;94010.47;;;9.79;100.00
21828;BME280;11076;47.942;11.804;2023-05-11T18:29:29;94017.91;;;9.76;100.00
21828;BME280;11076;47.942;11.804;2023-05-11T18:34:32;94018.06;;;9.63;100.00
21828;BME280;11076;47.942;11.804;2023-05-11T18:39:35;94028.78;;;9.56;100.00
21828;BME280;11076;47.942;11.804;2023-05-11T18:44:37;94021.63;;;9.57;100.00
21828;BME280;11076;47.942;11.804;2023-05-11T18:49:39;94029.25;;;9.53;100.00
21828;BME280;11076;47.942;11.804;2023-05-11T18:54:42;94024.84;;;9.41;100.00
21828;BME280;11076;47.942;11.804;2023-05-11T18:59:48;94028.09;;;9.43;100.00
21828;BME280;11076;47.942;11.804;2023-05-11T19:04:50;94021.94;;;9.42;100.00
21828;BME280;11076;47.942;11.804;2023-05-11T19:09:53;94028.59;;;9.33;100.00
21828;BME280;11076;47.942;11.804;2023-05-11T19:14:56;94028.97;;;9.36;100.00
21828;BME280;11076;47.942;11.804;2023-05-11T19:19:58;94028.97;;;9.36;100.00
21828;BME280;11076;47.942;11.804;2023-05-11T19:25:00;94021.72;;;9.25;100.00
21828;BME280;11076;47.942;11.804;2023-05-11T19:30:03;94026.53;;;9.35;100.00
21828;BME280;11076;47.942;11.804;2023-05-11T19:35:06;94035.66;;;9.27;100.00
21828;BME280;11076;47.942;11.804;2023-05-11T19:40:09;94029.47;;;9.27;100.00
21828;BME280;11076;47.942;11.804;2023-05-11T19:45:20;94030.75;;;9.24;100.00
21828;BME280;11076;47.942;11.804;2023-05-11T19:50:22;94038.16;;;9.22;100.00
21828;BME280;11076;47.942;11.804;2023-05-11T19:55:25;94040.53;;;9.30;100.00
21828;BME280;11076;47.942;11.804;2023-05-11T20:00:27;94045.88;;;9.30;100.00
21828;BME280;11076;47.942;11.804;2023-05-11T20:05:30;94037.72;;;9.25;100.00
21828;BME280;11076;47.942;11.804;2023-05-11T20:10:33;94040.13;;;9.08;100.00
21828;BME280;11076;47.942;11.804;2023-05-11T20:15:36;94032.50;;;9.12;100.00
21828;BME280;11076;47.942;11.804;2023-05-11T20:20:39;94038.09;;;9.04;100.00
21828;BME280;11076;47.942;11.804;2023-05-11T20:25:42;94038.38;;;8.95;100.00
21828;BME280;11076;47.942;11.804;2023-05-11T20:30:45;94038.38;;;8.95;100.00
21828;BME280;11076;47.942;11.804;2023-05-11T20:35:47;94030.97;;;8.98;100.00
21828;BME280;11076;47.942;11.804;2023-05-11T20:40:57;94026.53;;;8.91;100.00
21828;BME280;11076;47.942;11.804;2023-05-11T20:46:03;94023.25;;;8.89;100.00
21828;BME280;11076;47.942;11.804;2023-05-11T20:51:05;94023.25;;;8.89;100.00
21828;BME280;11076;47.942;11.804;2023-05-11T20:56:08;94022.41;;;8.89;100.00
21828;BME280;11076;47.942;11.804;2023-05-11T21:01:13;94026.16;;;8.81;100.00
21828;BME280;11076;47.942;11.804;2023-05-11T21:06:16;94021.94;;;8.73;100.00
21828;BME280;11076;47.942;11.804;2023-05-11T21:11:18;94017.22;;;8.75;100.00
21828;BME280;11076;47.942;11.804;2023-05-11T21:16:20;94016.97;;;8.77;100.00
21828;BME280;11076;47.942;11.804;2023-05-11T21:21:23;94019.59;;;8.84;100.00
21828;BME280;11076;47.942;11.804;2023-05-11T21:26:26;94013.44;;;8.83;100.00
21828;BME280;11076;47.942;11.804;2023-05-11T21:31:28;94014.66;;;8.87;100.00
21828;BME280;11076;47.942;11.804;2023-05-11T21:36:30;94015.09;;;8.84;100.00
21828;BME280;11076;47.942;11.804;2023-05-11T21:41:33;94011.53;;;8.90;100.00
21828;BME280;11076;47.942;11.804;2023-05-11T21:46:35;94009.66;;;8.98;100.00
21828;BME280;11076;47.942;11.804;2023-05-11T21:51:37;94022.59;;;8.94;100.00
21828;BME280;11076;47.942;11.804;2023-05-11T21:56:40;94025.31;;;8.87;100.00
21828;BME280;11076;47.942;11.804;2023-05-11T22:01:43;94031.41;;;8.94;100.00
21828;BME280;11076;47.942;11.804;2023-05-11T22:06:46;94034.66;;;8.96;100.00
21828;BME280;11076;47.942;11.804;2023-05-11T22:11:48;94029.78;;;8.93;100.00
21828;BME280;11076;47.942;11.804;2023-05-11T22:16:51;94032.44;;;8.93;100.00
21828;BME280;11076;47.942;11.804;2023-05-11T22:21:54;94036.00;;;8.87;100.00
21828;BME280;11076;47.942;11.804;2023-05-11T22:26:56;94037.69;;;8.75;100.00
21828;BME280;11076;47.942;11.804;2023-05-11T22:31:58;94033.81;;;8.71;100.00
21828;BME280;11076;47.942;11.804;2023-05-11T22:37:01;94039.34;;;8.76;100.00
21828;BME280;11076;47.942;11.804;2023-05-11T22:42:04;94036.69;;;8.76;100.00
21828;BME280;11076;47.942;11.804;2023-05-11T22:47:07;94029.53;;;8.70;100.00
21828;BME280;11076;47.942;11.804;2023-05-11T22:52:09;94027.91;;;8.69;100.00
21828;BME280;11076;47.942;11.804;2023-05-11T22:57:11;94031.22;;;8.64;100.00
21828;BME280;11076;47.942;11.804;2023-05-11T23:02:17;94031.44;;;8.63;100.00
21828;BME280;11076;47.942;11.804;2023-05-11T23:07:19;94032.69;;;8.60;100.00
21828;BME280;11076;47.942;11.804;2023-05-11T23:12:21;94038.22;;;8.59;100.00
21828;BME280;11076;47.942;11.804;2023-05-11T23:17:24;94032.50;;;8.55;100.00
21828;BME280;11076;47.942;11.804;2023-05-11T23:22:27;94025.56;;;8.47;100.00
21828;BME280;11076;47.942;11.804;2023-05-11T23:27:29;94022.75;;;8.35;100.00
21828;BME280;11076;47.942;11.804;2023-05-11T23:32:31;94025.28;;;8.24;100.00
21828;BME280;11076;47.942;11.804;2023-05-11T23:37:34;94024.91;;;8.20;100.00
21828;BME280;11076;47.942;11.804;2023-05-11T23:42:36;94030.22;;;8.13;100.00
21828;BME280;11076;47.942;11.804;2023-05-11T23:47:39;94032.03;;;8.20;100.00
21828;BME280;11076;47.942;11.804;2023-05-11T23:52:41;94023.44;;;8.24;100.00
21828;BME280;11076;47.942;11.804;2023-05-11T23:57:44;94020.34;;;8.27;100.00
